createdAt,value
2022-09-05T00:00:45.877Z,15.60
2022-09-05T00:06:02.660Z,15.95
2022-09-05T00:10:50.365Z,16.73
2022-09-05T00:15:55.131Z,15.63
2022-09-05T00:24:29.349Z,15.68
2022-09-05T00:26:17.427Z,16.23
2022-09-05T00:31:54.134Z,17.75
2022-09-05T00:36:31.786Z,16.58
2022-09-05T00:41:08.006Z,16.98
2022-09-05T00:45:32.818Z,16.30
2022-09-05T00:50:07.685Z,18.35
2022-09-05T00:55:02.505Z,17.95
2022-09-05T00:59:59.005Z,17.10
2022-09-05T01:04:43.305Z,19.83
2022-09-05T01:09:47.667Z,17.92
2022-09-05T01:14:44.905Z,18.20
2022-09-05T01:20:19.783Z,21.10
2022-09-05T01:25:10.037Z,24.02
2022-09-05T01:29:43.984Z,19.20
2022-09-05T01:34:47.965Z,18.10
2022-09-05T01:40:12.244Z,18.65
2022-09-05T01:44:29.906Z,20.88
2022-09-05T01:49:25.392Z,19.75
2022-09-05T01:54:18.554Z,19.10
2022-09-05T01:59:15.065Z,27.73
2022-09-05T02:03:53.846Z,62.53
2022-09-05T02:08:16.051Z,21.33
2022-09-05T02:13:03.036Z,30.70
2022-09-05T02:17:51.985Z,23.90
2022-09-05T02:22:25.246Z,21.60
2022-09-05T02:27:31.817Z,22.58
2022-09-05T02:32:36.405Z,24.42
2022-09-05T02:40:22.000Z,21.75
2022-09-05T02:45:19.649Z,21.83
2022-09-05T02:47:57.585Z,23.98
2022-09-05T02:57:27.324Z,24.17
2022-09-05T02:58:07.555Z,22.13
2022-09-05T03:02:39.915Z,23.88
2022-09-05T03:07:48.426Z,26.85
2022-09-05T03:12:49.725Z,30.55
2022-09-05T03:17:41.246Z,23.83
2022-09-05T03:22:56.985Z,24.58
2022-09-05T03:28:14.986Z,25.58
2022-09-05T03:33:20.088Z,26.50
2022-09-05T03:37:56.644Z,26.63
2022-09-05T03:42:58.867Z,28.95
2022-09-05T03:48:02.295Z,28.85
2022-09-05T03:57:10.993Z,26.10
2022-09-05T03:58:16.869Z,25.83
2022-09-05T04:08:10.688Z,28.42
2022-09-05T04:08:13.749Z,28.98
2022-09-05T04:12:49.426Z,26.45
2022-09-05T04:17:51.654Z,28.67
2022-09-05T04:22:20.309Z,30.45
2022-09-05T04:26:44.905Z,33.47
2022-09-05T04:31:30.361Z,28.65
2022-09-05T04:36:17.656Z,33.60
2022-09-05T04:41:00.546Z,29.67
2022-09-05T04:45:24.279Z,29.55
2022-09-05T04:50:15.605Z,29.40
2022-09-05T04:55:11.008Z,33.20
2022-09-05T05:04:49.440Z,28.63
2022-09-05T05:06:15.296Z,21.58
2022-09-05T05:09:27.941Z,17.88
2022-09-05T05:18:06.877Z,16.90
2022-09-05T05:19:06.289Z,13.93
2022-09-05T05:24:00.384Z,13.75
2022-09-05T05:28:49.984Z,14.02
2022-09-05T05:33:37.684Z,14.77
2022-09-05T05:38:11.385Z,18.25
2022-09-05T05:42:34.125Z,18.83
2022-09-05T05:47:42.585Z,23.10
2022-09-05T05:52:39.346Z,14.30
2022-09-05T05:57:22.984Z,13.68
2022-09-05T06:02:58.727Z,20.67
2022-09-05T06:07:46.675Z,14.20
2022-09-05T06:15:01.623Z,14.32
2022-09-05T06:18:19.324Z,12.07
2022-09-05T06:23:03.044Z,10.15
2022-09-05T06:28:19.116Z,10.88
2022-09-05T06:33:16.867Z,10.18
2022-09-05T06:38:24.584Z,8.63
2022-09-05T06:43:06.444Z,8.90
2022-09-05T06:47:33.944Z,11.25
2022-09-05T06:52:28.513Z,12.55
2022-09-05T06:57:27.586Z,16.17
2022-09-05T07:02:07.746Z,11.15
2022-09-05T07:07:06.194Z,13.10
2022-09-05T07:11:59.465Z,10.65
2022-09-05T07:16:50.047Z,10.25
2022-09-05T07:21:54.986Z,9.90
2022-09-05T07:26:42.057Z,8.30
2022-09-05T07:31:07.812Z,9.70
2022-09-05T07:35:41.759Z,6.38
2022-09-05T07:40:25.913Z,6.63
2022-09-05T07:45:02.625Z,6.70
2022-09-05T07:49:31.272Z,5.85
2022-09-05T07:57:15.834Z,7.22
2022-09-05T07:58:51.948Z,6.32
2022-09-05T08:03:15.346Z,6.65
2022-09-05T08:07:47.058Z,5.35
2022-09-05T08:12:28.017Z,9.98
2022-09-05T08:16:50.332Z,5.80
2022-09-05T08:21:22.345Z,8.32
2022-09-05T08:26:04.845Z,6.30
2022-09-05T08:30:28.109Z,5.05
2022-09-05T08:34:58.606Z,8.27
2022-09-05T08:39:25.826Z,9.30
2022-09-05T08:46:45.797Z,6.80
2022-09-05T08:50:04.305Z,7.60
2022-09-05T08:54:39.144Z,7.80
2022-09-05T08:59:38.485Z,9.43
2022-09-05T09:05:01.771Z,6.57
2022-09-05T09:09:54.664Z,5.30
2022-09-05T09:14:44.224Z,6.88
2022-09-05T09:19:31.396Z,6.32
2022-09-05T09:24:36.124Z,4.70
2022-09-05T09:29:12.668Z,6.35
2022-09-05T09:34:10.364Z,5.03
2022-09-05T09:38:41.284Z,6.40
2022-09-05T09:43:44.289Z,4.35
2022-09-05T09:48:46.864Z,4.00
2022-09-05T09:53:42.985Z,6.38
2022-09-05T09:59:15.353Z,5.53
2022-09-05T10:10:40.240Z,5.80
2022-09-05T10:10:50.235Z,5.13
2022-09-05T10:14:54.171Z,3.95
2022-09-05T10:20:10.039Z,7.40
2022-09-05T10:24:32.484Z,4.30
2022-09-05T10:29:36.540Z,3.78
2022-09-05T10:35:18.063Z,4.88
2022-09-05T10:39:17.425Z,3.25
2022-09-05T10:44:02.463Z,3.97
2022-09-05T10:48:29.384Z,4.15
2022-09-05T10:52:51.404Z,5.35
2022-09-05T10:57:44.585Z,4.95
2022-09-05T11:02:27.377Z,4.63
2022-09-05T11:07:29.578Z,5.55
2022-09-05T11:12:27.627Z,8.52
2022-09-05T11:16:55.652Z,3.50
2022-09-05T11:21:27.564Z,5.07
2022-09-05T11:26:33.784Z,4.13
2022-09-05T11:30:59.534Z,4.63
2022-09-05T11:39:46.644Z,5.00
2022-09-05T11:41:13.209Z,4.80
2022-09-05T11:45:47.539Z,4.85
2022-09-05T11:50:41.184Z,5.53
2022-09-05T11:55:25.554Z,7.22
2022-09-05T12:00:33.023Z,6.90
2022-09-05T12:05:48.666Z,9.35
2022-09-05T12:10:47.842Z,9.77
2022-09-05T12:15:27.614Z,8.45
2022-09-05T12:20:33.688Z,5.95
2022-09-05T12:27:40.717Z,8.98
2022-09-05T12:30:42.387Z,10.57
2022-09-05T12:36:07.543Z,12.20
2022-09-05T12:41:34.769Z,9.88
2022-09-05T12:45:37.109Z,11.23
2022-09-05T12:50:21.056Z,9.80
2022-09-05T12:54:56.549Z,11.73
2022-09-05T13:03:01.811Z,11.80
2022-09-05T13:04:30.999Z,11.80
2022-09-05T13:09:10.545Z,10.75
2022-09-05T13:15:01.626Z,11.82
2022-09-05T13:18:42.687Z,10.40
2022-09-05T13:23:46.491Z,9.52
2022-09-05T13:28:14.864Z,9.45
2022-09-05T13:37:58.205Z,8.32
2022-09-05T13:38:03.246Z,7.90
2022-09-05T13:42:36.306Z,6.97
2022-09-05T13:47:51.266Z,8.90
2022-09-05T13:52:43.955Z,10.93
2022-09-05T13:57:51.767Z,14.52
2022-09-05T14:08:27.317Z,9.60
2022-09-05T14:13:28.367Z,13.00
2022-09-05T14:18:21.298Z,11.18
2022-09-05T14:23:00.685Z,12.10
2022-09-05T14:27:26.390Z,11.05
2022-09-05T14:37:36.650Z,9.70
2022-09-05T14:38:00.510Z,10.57
2022-09-05T14:43:14.226Z,15.93
2022-09-05T14:48:25.971Z,14.00
2022-09-05T15:02:42.984Z,13.88
2022-09-05T15:03:04.967Z,14.30
2022-09-05T15:08:00.425Z,17.55
2022-09-05T15:12:39.774Z,14.13
2022-09-05T15:17:06.282Z,12.77
2022-09-05T15:21:38.423Z,13.07
2022-09-05T15:26:25.576Z,12.98
2022-09-05T15:31:02.125Z,10.85
2022-09-05T15:35:43.605Z,12.68
2022-09-05T15:40:22.358Z,11.52
2022-09-05T15:45:08.624Z,11.98
2022-09-05T15:49:36.404Z,14.80
2022-09-05T15:53:58.829Z,11.18
2022-09-05T15:58:21.167Z,10.35
2022-09-05T16:02:50.105Z,11.30
2022-09-05T16:10:50.857Z,11.00
2022-09-05T16:12:18.774Z,12.55
2022-09-05T16:23:12.738Z,12.02
2022-09-05T16:23:33.124Z,11.70
2022-09-05T16:26:28.605Z,10.68
2022-09-05T16:31:13.745Z,10.25
2022-09-05T16:35:46.705Z,8.35
2022-09-05T16:40:32.243Z,11.52
2022-09-05T16:45:14.265Z,10.35
2022-09-05T16:49:53.186Z,9.93
2022-09-05T16:54:38.876Z,10.27
2022-09-05T17:05:06.020Z,8.02
2022-09-05T17:09:40.971Z,8.13
2022-09-05T17:14:17.344Z,9.02
2022-09-05T17:18:39.967Z,10.70
2022-09-05T17:29:17.569Z,12.30
2022-09-05T17:29:41.403Z,8.30
2022-09-05T17:33:43.429Z,11.43
2022-09-05T17:38:24.493Z,9.80
2022-09-05T17:42:59.924Z,11.48
2022-09-05T17:47:46.424Z,12.98
2022-09-05T17:52:20.521Z,9.85
2022-09-05T17:56:47.204Z,11.45
2022-09-05T18:01:26.766Z,13.73
2022-09-05T18:05:57.025Z,11.23
2022-09-05T18:11:02.444Z,11.85
2022-09-05T18:15:36.276Z,13.15
2022-09-05T18:20:10.836Z,11.95
2022-09-05T18:30:10.824Z,13.15
2022-09-05T18:34:32.695Z,25.60
2022-09-05T18:39:25.741Z,15.98
2022-09-05T18:44:13.683Z,15.60
2022-09-05T18:50:15.806Z,15.98
2022-09-05T18:53:48.844Z,14.40
2022-09-05T18:58:24.410Z,19.02
2022-09-05T19:03:00.685Z,16.40
2022-09-05T19:07:30.137Z,17.75
2022-09-05T19:12:31.915Z,19.20
2022-09-05T19:17:12.126Z,20.92
2022-09-05T19:21:35.124Z,19.27
2022-09-05T19:26:09.667Z,18.02
2022-09-05T19:36:49.846Z,18.48
2022-09-05T19:37:08.193Z,16.85
2022-09-05T19:47:27.753Z,19.58
2022-09-05T19:47:44.911Z,19.60
2022-09-05T19:49:39.945Z,19.25
2022-09-05T19:54:05.361Z,20.17
2022-09-05T19:58:28.005Z,19.80
2022-09-05T20:02:56.186Z,20.48
2022-09-05T20:07:22.625Z,23.00
2022-09-05T20:11:58.925Z,19.05
2022-09-05T20:16:41.142Z,22.50
2022-09-05T20:21:23.706Z,21.83
2022-09-05T20:25:48.364Z,21.88
2022-09-05T20:30:19.142Z,21.48
2022-09-05T20:37:09.401Z,21.17
2022-09-05T20:43:23.234Z,21.95
2022-09-05T20:44:48.846Z,21.67
2022-09-05T20:54:08.387Z,23.58
2022-09-05T20:54:31.937Z,23.38
2022-09-05T20:58:51.388Z,21.05
2022-09-05T21:03:25.009Z,21.55
2022-09-05T21:07:59.522Z,21.20
2022-09-05T21:12:45.673Z,22.88
2022-09-05T21:17:14.930Z,20.75
2022-09-05T21:21:38.118Z,22.00
2022-09-05T21:26:21.057Z,21.88
2022-09-05T21:30:46.065Z,21.52
2022-09-05T21:35:33.566Z,21.90
2022-09-05T21:39:59.846Z,23.88
2022-09-05T21:47:46.871Z,22.25
2022-09-05T21:49:07.826Z,28.77
2022-09-05T21:59:20.705Z,24.38
2022-09-05T21:59:29.834Z,24.38
2022-09-05T22:03:11.989Z,24.38
2022-09-05T22:07:41.045Z,26.80
2022-09-05T22:12:12.030Z,24.20
2022-09-05T22:16:47.638Z,24.50
2022-09-05T22:21:34.038Z,25.15
2022-09-05T22:25:57.145Z,26.30
2022-09-05T22:30:19.145Z,28.25
2022-09-05T22:34:41.612Z,25.92
2022-09-05T22:39:04.085Z,24.38
2022-09-05T22:43:26.626Z,23.02
2022-09-05T22:47:48.665Z,23.65
2022-09-05T22:52:10.705Z,25.77
2022-09-05T22:56:36.344Z,25.60
2022-09-05T23:01:01.718Z,23.33
2022-09-05T23:05:23.877Z,22.15
2022-09-05T23:09:45.625Z,22.55
2022-09-05T23:14:07.805Z,23.80
2022-09-05T23:18:31.165Z,24.63
2022-09-05T23:22:53.384Z,23.67
2022-09-05T23:27:15.184Z,25.42
2022-09-05T23:31:37.504Z,22.48
2022-09-05T23:36:08.906Z,24.23
2022-09-05T23:40:30.665Z,23.55
2022-09-05T23:44:52.645Z,28.30
2022-09-05T23:49:14.686Z,23.58
2022-09-05T23:53:37.226Z,22.77
2022-09-05T23:57:59.465Z,24.40
